CST,Max TemperatureF,Mean TemperatureF,Min TemperatureF,Max Dew PointF,MeanDew PointF,Min DewpointF,Max Humidity, Mean Humidity, Min Humidity, Max Sea Level PressureIn, Mean Sea Level PressureIn, Min Sea Level PressureIn, Max VisibilityMiles, Mean VisibilityMiles, Min VisibilityMiles, Max Wind SpeedMPH, Mean Wind SpeedMPH, Max Gust SpeedMPH,PrecipitationIn, CloudCover, Events, WindDirDegrees
2013-1-1,21,10,0,12,7,-5,87,78,55,30.32,30.23,30.16,10,8,0,9,5,,0.00,1,Fog,250
2013-1-2,36,22,9,28,17,4,85,77,68,30.24,30.13,30.07,10,10,7,10,6,,0.00,4,,253
2013-1-3,31,20,10,24,18,6,87,77,62,30.40,30.34,30.24,10,10,7,9,6,,0.00,5,,307
2013-1-4,30,21,12,18,13,8,86,74,54,30.33,30.23,30.15,10,10,5,10,6,,0.00,0,,208
2013-1-5,36,26,16,29,21,12,86,74,55,30.22,30.09,30.03,10,10,7,20,8,29,0.00,1,,241
2013-1-6,38,24,11,24,17,7,86,72,54,30.34,30.25,30.13,10,10,10,14,8,20,0.00,0,,227
2013-1-7,41,34,26,28,24,21,89,64,53,30.13,30.02,29.93,10,10,10,21,12,30,0.00,0,,200
2013-1-8,43,34,26,30,27,22,88,74,55,30.16,29.96,29.86,10,10,10,18,8,23,0.03,0,,216
2013-1-9,50,36,23,32,27,18,88,72,48,30.43,30.33,30.16,10,10,10,8,2,,0.00,0,,177
2013-1-10,41,36,32,39,34,25,96,85,55,30.31,29.95,29.67,10,5,0,17,5,24,0.28,6,Fog-Rain,136
2013-1-11,54,42,30,46,40,21,96,82,34,29.78,29.53,29.40,10,7,0,29,14,36,0.00,5,Fog,193
2013-1-12,28,21,13,19,8,4,70,56,43,30.14,30.05,29.81,10,10,10,26,16,36,0.00,1,,319
2013-1-13,23,16,9,5,4,0,79,63,38,30.34,30.23,30.13,10,10,10,14,10,20,0.00,0,,307
2013-1-14,30,18,7,11,7,2,80,62,36,30.46,30.38,30.34,10,10,10,9,1,,0.00,1,,242
2013-1-15,36,24,13,16,12,8,82,61,37,30.35,30.23,30.07,10,10,10,12,4,17,0.00,2,,211
2013-1-16,53,38,23,29,23,15,83,62,33,30.25,30.04,29.96,10,10,10,18,9,23,0.00,1,,279
2013-1-17,50,36,22,30,26,18,90,74,41,30.46,30.37,30.26,10,10,7,10,5,,0.00,0,,272
2013-1-18,56,44,31,28,26,24,78,59,29,30.29,30.07,29.93,10,10,10,24,10,29,0.00,0,,204
2013-1-19,56,41,26,30,25,15,85,61,26,30.31,30.06,29.90,10,10,10,25,8,32,0.00,0,,304
2013-1-20,29,22,13,16,9,4,74,59,40,30.42,30.35,30.30,10,10,10,12,7,16,0.00,2,,26
2013-1-21,18,16,13,11,6,-4,78,68,43,30.44,30.38,30.33,10,8,2,20,6,,0.00,7,Snow,349
2013-1-22,26,18,10,11,7,2,77,61,48,30.36,30.28,30.22,10,10,10,12,4,,0.00,1,,122
2013-1-23,36,24,12,20,12,5,78,63,43,30.46,30.26,30.15,10,10,10,20,6,23,0.00,0,,16
2013-1-24,24,14,5,4,-2,-5,69,48,31,30.49,30.34,30.14,10,10,10,14,10,18,0.00,3,,103
2013-1-25,50,32,15,21,14,2,74,51,27,30.22,30.17,30.13,10,10,10,10,4,,0.00,0,,289
2013-1-26,59,42,26,24,18,10,77,45,15,30.22,30.12,29.97,10,10,10,23,8,28,0.00,2,,142
2013-1-27,50,44,39,50,39,20,96,89,36,29.96,29.80,29.66,10,4,0,13,8,18,0.10,8,Fog-Rain,167
2013-1-28,55,44,32,54,39,32,100,96,94,29.84,29.71,29.54,5,2,0,12,4,,0.00,6,Fog,85
2013-1-29,40,36,32,39,33,31,97,92,87,29.71,29.64,29.58,10,5,1,25,13,31,0.00,8,Snow,351
2013-1-30,32,22,11,30,17,7,94,83,70,29.93,29.83,29.64,10,6,1,29,18,33,0.00,6,Snow,317
2013-1-31,18,7,-4,13,3,-10,87,70,53,30.43,30.20,29.93,10,9,3,28,10,33,0.00,4,,332